sensor_id;sensor_type;location;lat;lon;timestamp;pressure;altitude;pressure_sealevel;temperature;humidity
16094;BME280;8151;47.824;12.092;2023-04-25T00:00:25;95704.75;;;9.48;67.75
16094;BME280;8151;47.824;12.092;2023-04-25T00:02:54;95706.38;;;9.49;68.27
16094;BME280;8151;47.824;12.092;2023-04-25T00:05:23;95699.81;;;9.45;68.05
16094;BME280;8151;47.824;12.092;2023-04-25T00:07:52;95701.00;;;9.42;68.46
16094;BME280;8151;47.824;12.092;2023-04-25T00:10:21;95695.25;;;9.39;68.38
16094;BME280;8151;47.824;12.092;2023-04-25T00:12:51;95689.97;;;9.39;68.33
16094;BME280;8151;47.824;12.092;2023-04-25T00:15:20;95692.59;;;9.39;68.94
16094;BME280;8151;47.824;12.092;2023-04-25T00:17:49;95687.16;;;9.40;68.79
16094;BME280;8151;47.824;12.092;2023-04-25T00:20:19;95687.59;;;9.44;68.45
16094;BME280;8151;47.824;12.092;2023-04-25T00:22:49;95689.88;;;9.47;68.62
16094;BME280;8151;47.824;12.092;2023-04-25T00:25:18;95686.25;;;9.48;68.70
16094;BME280;8151;47.824;12.092;2023-04-25T00:27:46;95679.81;;;9.51;68.08
16094;BME280;8151;47.824;12.092;2023-04-25T00:30:16;95677.72;;;9.46;68.32
16094;BME280;8151;47.824;12.092;2023-04-25T00:32:44;95673.09;;;9.40;68.34
16094;BME280;8151;47.824;12.092;2023-04-25T00:35:13;95682.84;;;9.39;68.74
16094;BME280;8151;47.824;12.092;2023-04-25T00:37:41;95673.47;;;9.37;69.17
16094;BME280;8151;47.824;12.092;2023-04-25T00:40:10;95675.47;;;9.35;68.99
16094;BME280;8151;47.824;12.092;2023-04-25T00:42:41;95676.13;;;9.37;68.49
16094;BME280;8151;47.824;12.092;2023-04-25T00:45:12;95665.38;;;9.38;68.71
16094;BME280;8151;47.824;12.092;2023-04-25T00:47:43;95667.56;;;9.35;68.80
16094;BME280;8151;47.824;12.092;2023-04-25T00:50:12;95658.34;;;9.31;68.97
16094;BME280;8151;47.824;12.092;2023-04-25T00:52:44;95659.00;;;9.33;69.08
16094;BME280;8151;47.824;12.092;2023-04-25T00:55:13;95656.00;;;9.36;69.27
16094;BME280;8151;47.824;12.092;2023-04-25T00:57:42;95656.47;;;9.39;69.40
16094;BME280;8151;47.824;12.092;2023-04-25T01:00:11;95652.84;;;9.40;69.63
16094;BME280;8151;47.824;12.092;2023-04-25T01:02:49;95657.09;;;9.41;68.99
16094;BME280;8151;47.824;12.092;2023-04-25T01:05:18;95665.81;;;9.42;68.96
16094;BME280;8151;47.824;12.092;2023-04-25T01:07:46;95666.94;;;9.48;69.14
16094;BME280;8151;47.824;12.092;2023-04-25T01:10:15;95667.50;;;9.43;69.00
16094;BME280;8151;47.824;12.092;2023-04-25T01:12:43;95673.56;;;9.43;69.54
16094;BME280;8151;47.824;12.092;2023-04-25T01:15:12;95661.19;;;9.44;69.02
16094;BME280;8151;47.824;12.092;2023-04-25T01:17:40;95659.41;;;9.44;69.29
16094;BME280;8151;47.824;12.092;2023-04-25T01:20:13;95662.84;;;9.45;69.59
16094;BME280;8151;47.824;12.092;2023-04-25T01:22:43;95666.94;;;9.48;69.22
16094;BME280;8151;47.824;12.092;2023-04-25T01:25:12;95665.16;;;9.48;69.27
16094;BME280;8151;47.824;12.092;2023-04-25T01:27:41;95661.88;;;9.46;69.90
16094;BME280;8151;47.824;12.092;2023-04-25T01:30:10;95664.69;;;9.44;69.53
16094;BME280;8151;47.824;12.092;2023-04-25T01:32:39;95659.75;;;9.41;69.64
16094;BME280;8151;47.824;12.092;2023-04-25T01:35:11;95662.75;;;9.38;69.75
16094;BME280;8151;47.824;12.092;2023-04-25T01:37:40;95675.47;;;9.35;69.94
16094;BME280;8151;47.824;12.092;2023-04-25T01:40:13;95675.34;;;9.28;69.91
16094;BME280;8151;47.824;12.092;2023-04-25T01:42:43;95669.97;;;9.21;70.62
16094;BME280;8151;47.824;12.092;2023-04-25T01:45:12;95666.69;;;9.19;70.56
16094;BME280;8151;47.824;12.092;2023-04-25T01:47:40;95660.06;;;9.23;70.72
16094;BME280;8151;47.824;12.092;2023-04-25T01:50:14;95664.78;;;9.28;70.64
16094;BME280;8151;47.824;12.092;2023-04-25T01:52:43;95657.97;;;9.34;70.20
16094;BME280;8151;47.824;12.092;2023-04-25T01:55:11;95655.28;;;9.42;70.32
16094;BME280;8151;47.824;12.092;2023-04-25T01:57:42;95650.94;;;9.49;69.55
16094;BME280;8151;47.824;12.092;2023-04-25T02:00:12;95649.09;;;9.50;69.63
16094;BME280;8151;47.824;12.092;2023-04-25T02:02:44;95649.94;;;9.50;69.92
16094;BME280;8151;47.824;12.092;2023-04-25T02:05:12;95647.31;;;9.50;70.22
16094;BME280;8151;47.824;12.092;2023-04-25T02:07:41;95650.19;;;9.55;70.35
16094;BME280;8151;47.824;12.092;2023-04-25T02:10:10;95637.16;;;9.54;69.68
16094;BME280;8151;47.824;12.092;2023-04-25T02:12:40;95634.75;;;9.52;70.03
16094;BME280;8151;47.824;12.092;2023-04-25T02:15:11;95632.44;;;9.49;70.54
16094;BME280;8151;47.824;12.092;2023-04-25T02:17:44;95642.03;;;9.50;70.48
16094;BME280;8151;47.824;12.092;2023-04-25T02:20:13;95638.28;;;9.44;69.94
16094;BME280;8151;47.824;12.092;2023-04-25T02:22:43;95638.44;;;9.43;69.80
16094;BME280;8151;47.824;12.092;2023-04-25T02:25:11;95634.53;;;9.39;69.66
16094;BME280;8151;47.824;12.092;2023-04-25T02:27:41;95636.22;;;9.32;70.09
16094;BME280;8151;47.824;12.092;2023-04-25T02:30:11;95643.91;;;9.18;70.28
16094;BME280;8151;47.824;12.092;2023-04-25T02:32:40;95633.09;;;9.13;69.93
16094;BME280;8151;47.824;12.092;2023-04-25T02:35:10;95635.53;;;9.15;70.19
16094;BME280;8151;47.824;12.092;2023-04-25T02:37:39;95633.25;;;9.12;69.85
16094;BME280;8151;47.824;12.092;2023-04-25T02:40:08;95631.25;;;9.14;69.95
16094;BME280;8151;47.824;12.092;2023-04-25T02:42:37;95633.78;;;9.07;70.11
16094;BME280;8151;47.824;12.092;2023-04-25T02:45:08;95638.94;;;9.00;70.01
16094;BME280;8151;47.824;12.092;2023-04-25T02:47:36;95628.28;;;8.94;69.84
16094;BME280;8151;47.824;12.092;2023-04-25T02:50:06;95632.78;;;8.85;70.59
16094;BME280;8151;47.824;12.092;2023-04-25T02:52:35;95632.03;;;8.76;70.72
16094;BME280;8151;47.824;12.092;2023-04-25T02:55:04;95631.72;;;8.71;70.46
16094;BME280;8151;47.824;12.092;2023-04-25T02:57:32;95630.06;;;8.70;70.64
16094;BME280;8151;47.824;12.092;2023-04-25T03:00:01;95629.25;;;8.70;70.42
16094;BME280;8151;47.824;12.092;2023-04-25T03:02:32;95623.19;;;8.69;70.69
16094;BME280;8151;47.824;12.092;2023-04-25T03:05:01;95622.00;;;8.72;70.49
16094;BME280;8151;47.824;12.092;2023-04-25T03:07:30;95628.94;;;8.73;70.42
16094;BME280;8151;47.824;12.092;2023-04-25T03:09:58;95624.28;;;8.75;70.90
16094;BME280;8151;47.824;12.092;2023-04-25T03:12:27;95615.19;;;8.77;70.72
16094;BME280;8151;47.824;12.092;2023-04-25T03:14:55;95618.47;;;8.79;70.73
16094;BME280;8151;47.824;12.092;2023-04-25T03:17:24;95612.66;;;8.84;70.78
16094;BME280;8151;47.824;12.092;2023-04-25T03:19:54;95607.22;;;8.85;70.49
16094;BME280;8151;47.824;12.092;2023-04-25T03:22:23;95608.88;;;8.86;70.48
16094;BME280;8151;47.824;12.092;2023-04-25T03:24:51;95617.59;;;8.87;70.87
16094;BME280;8151;47.824;12.092;2023-04-25T03:27:20;95621.06;;;8.87;70.61
16094;BME280;8151;47.824;12.092;2023-04-25T03:29:48;95617.78;;;8.85;71.02
16094;BME280;8151;47.824;12.092;2023-04-25T03:32:17;95618.97;;;8.83;70.85
16094;BME280;8151;47.824;12.092;2023-04-25T03:34:45;95628.31;;;8.85;70.91
16094;BME280;8151;47.824;12.092;2023-04-25T03:37:15;95614.00;;;8.88;70.87
16094;BME280;8151;47.824;12.092;2023-04-25T03:39:44;95619.53;;;8.93;71.28
16094;BME280;8151;47.824;12.092;2023-04-25T03:42:12;95612.25;;;8.95;71.09
16094;BME280;8151;47.824;12.092;2023-04-25T03:44:41;95607.00;;;8.95;70.97
16094;BME280;8151;47.824;12.092;2023-04-25T03:47:09;95614.56;;;8.98;71.13
16094;BME280;8151;47.824;12.092;2023-04-25T03:49:37;95611.56;;;9.01;71.36
16094;BME280;8151;47.824;12.092;2023-04-25T03:52:06;95610.22;;;9.05;70.92
16094;BME280;8151;47.824;12.092;2023-04-25T03:54:35;95614.16;;;9.10;70.82
16094;BME280;8151;47.824;12.092;2023-04-25T03:57:04;95620.25;;;9.10;71.26
16094;BME280;8151;47.824;12.092;2023-04-25T03:59:32;95620.06;;;9.12;71.47
16094;BME280;8151;47.824;12.092;2023-04-25T04:02:01;95625.81;;;9.15;71.18
16094;BME280;8151;47.824;12.092;2023-04-25T04:04:30;95622.00;;;9.18;71.13
16094;BME280;8151;47.824;12.092;2023-04-25T04:06:59;95620.81;;;9.20;71.01
16094;BME280;8151;47.824;12.092;2023-04-25T04:09:27;95628.22;;;9.25;70.87
16094;BME280;8151;47.824;12.092;2023-04-25T04:11:57;95626.38;;;9.25;70.95
16094;BME280;8151;47.824;12.092;2023-04-25T04:14:25;95624.56;;;9.26;70.77
16094;BME280;8151;47.824;12.092;2023-04-25T04:16:54;95628.22;;;9.25;70.56
16094;BME280;8151;47.824;12.092;2023-04-25T04:19:22;95646.22;;;9.21;70.53
16094;BME280;8151;47.824;12.092;2023-04-25T04:21:51;95672.22;;;9.10;71.26
16094;BME280;8151;47.824;12.092;2023-04-25T04:24:19;95658.72;;;9.04;71.24
16094;BME280;8151;47.824;12.092;2023-04-25T04:26:48;95673.91;;;9.02;71.25
16094;BME280;8151;47.824;12.092;2023-04-25T04:29:19;95657.00;;;8.89;70.96
16094;BME280;8151;47.824;12.092;2023-04-25T04:31:48;95639.59;;;8.79;71.54
16094;BME280;8151;47.824;12.092;2023-04-25T04:34:18;95637.13;;;8.78;71.49
16094;BME280;8151;47.824;12.092;2023-04-25T04:36:46;95636.63;;;8.74;71.41
16094;BME280;8151;47.824;12.092;2023-04-25T04:39:15;95631.09;;;8.69;71.64
16094;BME280;8151;47.824;12.092;2023-04-25T04:41:44;95639.47;;;8.73;71.45
16094;BME280;8151;47.824;12.092;2023-04-25T04:44:12;95639.25;;;8.82;71.26
16094;BME280;8151;47.824;12.092;2023-04-25T04:46:43;95630.94;;;8.94;71.01
16094;BME280;8151;47.824;12.092;2023-04-25T04:49:13;95633.84;;;8.99;71.04
16094;BME280;8151;47.824;12.092;2023-04-25T04:51:42;95638.88;;;9.09;70.56
16094;BME280;8151;47.824;12.092;2023-04-25T04:54:12;95634.53;;;9.16;70.56
16094;BME280;8151;47.824;12.092;2023-04-25T04:56:41;95644.72;;;9.19;70.42
16094;BME280;8151;47.824;12.092;2023-04-25T04:59:10;95641.28;;;9.18;70.15
16094;BME280;8151;47.824;12.092;2023-04-25T05:01:38;95634.66;;;9.22;70.22
16094;BME280;8151;47.824;12.092;2023-04-25T05:04:08;95632.00;;;9.22;70.50
16094;BME280;8151;47.824;12.092;2023-04-25T05:06:36;95637.50;;;9.21;70.81
16094;BME280;8151;47.824;12.092;2023-04-25T05:09:05;95646.16;;;9.30;70.49
16094;BME280;8151;47.824;12.092;2023-04-25T05:11:33;95640.16;;;9.36;70.25
16094;BME280;8151;47.824;12.092;2023-04-25T05:14:02;95647.44;;;9.34;70.91
16094;BME280;8151;47.824;12.092;2023-04-25T05:16:30;95656.00;;;9.36;70.48
16094;BME280;8151;47.824;12.092;2023-04-25T05:19:10;95678.88;;;9.20;71.07
16094;BME280;8151;47.824;12.092;2023-04-25T05:21:38;95694.84;;;9.04;71.26
16094;BME280;8151;47.824;12.092;2023-04-25T05:24:07;95689.47;;;8.89;71.60
16094;BME280;8151;47.824;12.092;2023-04-25T05:26:37;95679.16;;;8.79;71.92
16094;BME280;8151;47.824;12.092;2023-04-25T05:29:05;95671.47;;;8.70;72.01
16094;BME280;8151;47.824;12.092;2023-04-25T05:31:34;95665.53;;;8.67;72.00
16094;BME280;8151;47.824;12.092;2023-04-25T05:34:02;95666.19;;;8.70;71.68
16094;BME280;8151;47.824;12.092;2023-04-25T05:36:32;95664.56;;;8.69;71.59
16094;BME280;8151;47.824;12.092;2023-04-25T05:39:01;95661.28;;;8.58;71.43
16094;BME280;8151;47.824;12.092;2023-04-25T05:41:31;95665.09;;;8.56;71.64
16094;BME280;8151;47.824;12.092;2023-04-25T05:43:59;95654.72;;;8.54;71.66
16094;BME280;8151;47.824;12.092;2023-04-25T05:46:28;95657.84;;;8.58;71.30
16094;BME280;8151;47.824;12.092;2023-04-25T05:48:56;95658.81;;;8.65;71.39
16094;BME280;8151;47.824;12.092;2023-04-25T05:51:25;95654.00;;;8.69;71.60
16094;BME280;8151;47.824;12.092;2023-04-25T05:54:01;95655.00;;;8.67;71.44
16094;BME280;8151;47.824;12.092;2023-04-25T05:56:30;95650.53;;;8.68;71.18
16094;BME280;8151;47.824;12.092;2023-04-25T05:58:58;95660.59;;;8.64;71.11
16094;BME280;8151;47.824;12.092;2023-04-25T06:01:26;95665.41;;;8.61;71.58
16094;BME280;8151;47.824;12.092;2023-04-25T06:03:55;95662.63;;;8.54;71.85
16094;BME280;8151;47.824;12.092;2023-04-25T06:06:24;95659.34;;;8.52;71.85
16094;BME280;8151;47.824;12.092;2023-04-25T06:08:53;95662.63;;;8.54;71.95
16094;BME280;8151;47.824;12.092;2023-04-25T06:11:27;95659.84;;;8.56;71.95
16094;BME280;8151;47.824;12.092;2023-04-25T06:13:55;95655.38;;;8.56;71.60
16094;BME280;8151;47.824;12.092;2023-04-25T06:16:24;95658.16;;;8.63;71.95
16094;BME280;8151;47.824;12.092;2023-04-25T06:18:53;95646.84;;;8.77;71.63
16094;BME280;8151;47.824;12.092;2023-04-25T06:21:22;95648.84;;;8.98;70.95
16094;BME280;8151;47.824;12.092;2023-04-25T06:23:58;95647.91;;;9.14;71.02
16094;BME280;8151;47.824;12.092;2023-04-25T06:26:28;95643.91;;;9.18;70.74
16094;BME280;8151;47.824;12.092;2023-04-25T06:28:56;95641.56;;;9.23;70.54
16094;BME280;8151;47.824;12.092;2023-04-25T06:31:25;95634.22;;;9.34;70.23
16094;BME280;8151;47.824;12.092;2023-04-25T06:33:53;95633.16;;;9.43;70.41
16094;BME280;8151;47.824;12.092;2023-04-25T06:36:22;95642.03;;;9.50;70.20
16094;BME280;8151;47.824;12.092;2023-04-25T06:38:52;95627.72;;;9.59;70.62
16094;BME280;8151;47.824;12.092;2023-04-25T06:41:20;95626.63;;;9.69;70.22
16094;BME280;8151;47.824;12.092;2023-04-25T06:43:50;95631.03;;;9.76;70.32
16094;BME280;8151;47.824;12.092;2023-04-25T06:46:19;95627.75;;;9.74;69.79
16094;BME280;8151;47.824;12.092;2023-04-25T06:48:47;95624.94;;;9.76;70.29
16094;BME280;8151;47.824;12.092;2023-04-25T06:51:16;95622.75;;;9.79;69.98
16094;BME280;8151;47.824;12.092;2023-04-25T06:53:44;95620.91;;;9.80;69.56
16094;BME280;8151;47.824;12.092;2023-04-25T06:56:13;95623.38;;;9.81;69.73
16094;BME280;8151;47.824;12.092;2023-04-25T06:58:41;95623.84;;;9.85;69.80
16094;BME280;8151;47.824;12.092;2023-04-25T07:01:11;95618.34;;;9.86;70.23
16094;BME280;8151;47.824;12.092;2023-04-25T07:03:39;95621.38;;;9.98;69.26
16094;BME280;8151;47.824;12.092;2023-04-25T07:06:08;95614.34;;;10.05;69.28
16094;BME280;8151;47.824;12.092;2023-04-25T07:08:36;95612.97;;;10.10;69.99
16094;BME280;8151;47.824;12.092;2023-04-25T07:11:05;95611.59;;;10.14;69.79
16094;BME280;8151;47.824;12.092;2023-04-25T07:13:33;95606.41;;;10.20;69.11
16094;BME280;8151;47.824;12.092;2023-04-25T07:16:02;95608.94;;;10.29;68.97
16094;BME280;8151;47.824;12.092;2023-04-25T07:18:32;95597.19;;;10.31;68.36
16094;BME280;8151;47.824;12.092;2023-04-25T07:21:01;95599.75;;;10.39;68.76
16094;BME280;8151;47.824;12.092;2023-04-25T07:23:29;95606.75;;;10.47;68.17
16094;BME280;8151;47.824;12.092;2023-04-25T07:25:58;95599.69;;;10.54;67.74
16094;BME280;8151;47.824;12.092;2023-04-25T07:28:27;95583.13;;;10.60;67.96
16094;BME280;8151;47.824;12.092;2023-04-25T07:30:55;95594.38;;;10.69;67.52
16094;BME280;8151;47.824;12.092;2023-04-25T07:33:25;95594.69;;;10.81;67.19
16094;BME280;8151;47.824;12.092;2023-04-25T07:35:55;95599.69;;;10.91;66.61
16094;BME280;8151;47.824;12.092;2023-04-25T07:38:23;95592.44;;;10.99;66.52
16094;BME280;8151;47.824;12.092;2023-04-25T07:40:52;95600.06;;;11.09;66.05
16094;BME280;8151;47.824;12.092;2023-04-25T07:43:20;95612.28;;;11.10;65.94
16094;BME280;8151;47.824;12.092;2023-04-25T07:45:50;95594.56;;;11.11;66.16
16094;BME280;8151;47.824;12.092;2023-04-25T07:48:18;95595.84;;;11.15;66.17
16094;BME280;8151;47.824;12.092;2023-04-25T07:50:49;95594.63;;;11.17;66.40
16094;BME280;8151;47.824;12.092;2023-04-25T07:53:18;95597.03;;;11.12;66.08
16094;BME280;8151;47.824;12.092;2023-04-25T07:55:50;95603.22;;;10.98;65.88
16094;BME280;8151;47.824;12.092;2023-04-25T07:58:18;95599.06;;;10.89;66.19
16094;BME280;8151;47.824;12.092;2023-04-25T08:00:53;95603.75;;;10.93;66.09
16094;BME280;8151;47.824;12.092;2023-04-25T08:03:22;95598.91;;;10.97;65.81
16094;BME280;8151;47.824;12.092;2023-04-25T08:05:51;95595.94;;;11.07;65.91
16094;BME280;8151;47.824;12.092;2023-04-25T08:08:21;95602.50;;;11.11;65.66
16094;BME280;8151;47.824;12.092;2023-04-25T08:10:49;95595.84;;;11.15;65.55
16094;BME280;8151;47.824;12.092;2023-04-25T08:13:18;95600.19;;;11.22;65.14
16094;BME280;8151;47.824;12.092;2023-04-25T08:15:47;95600.66;;;11.33;64.83
16094;BME280;8151;47.824;12.092;2023-04-25T08:18:15;95598.91;;;11.40;64.91
16094;BME280;8151;47.824;12.092;2023-04-25T08:20:44;95598.69;;;11.41;64.91
16094;BME280;8151;47.824;12.092;2023-04-25T08:23:12;95608.72;;;11.46;64.48
16094;BME280;8151;47.824;12.092;2023-04-25T08:25:43;95597.97;;;11.54;64.49
16094;BME280;8151;47.824;12.092;2023-04-25T08:28:12;95596.22;;;11.68;64.30
16094;BME280;8151;47.824;12.092;2023-04-25T08:30:41;95592.00;;;11.80;64.34
16094;BME280;8151;47.824;12.092;2023-04-25T08:33:09;95596.06;;;11.76;64.00
16094;BME280;8151;47.824;12.092;2023-04-25T08:35:38;95594.19;;;11.70;63.89
16094;BME280;8151;47.824;12.092;2023-04-25T08:38:07;95591.91;;;11.60;63.88
16094;BME280;8151;47.824;12.092;2023-04-25T08:40:38;95588.59;;;11.52;63.60
16094;BME280;8151;47.824;12.092;2023-04-25T08:43:08;95596.91;;;11.49;63.53
16094;BME280;8151;47.824;12.092;2023-04-25T08:45:39;95606.06;;;11.46;63.16
16094;BME280;8151;47.824;12.092;2023-04-25T08:48:10;95606.69;;;11.48;63.41
16094;BME280;8151;47.824;12.092;2023-04-25T08:50:44;95605.09;;;11.54;63.06
16094;BME280;8151;47.824;12.092;2023-04-25T08:53:14;95611.47;;;11.59;63.27
16094;BME280;8151;47.824;12.092;2023-04-25T08:55:47;95605.38;;;11.66;63.10
16094;BME280;8151;47.824;12.092;2023-04-25T08:58:18;95609.72;;;11.73;63.32
16094;BME280;8151;47.824;12.092;2023-04-25T09:00:49;95602.44;;;11.82;63.33
16094;BME280;8151;47.824;12.092;2023-04-25T09:03:18;95603.31;;;11.89;63.46
16094;BME280;8151;47.824;12.092;2023-04-25T09:05:46;95603.34;;;11.96;63.39
16094;BME280;8151;47.824;12.092;2023-04-25T09:08:15;95608.66;;;11.96;63.05
16094;BME280;8151;47.824;12.092;2023-04-25T09:10:44;95612.84;;;11.83;62.78
16094;BME280;8151;47.824;12.092;2023-04-25T09:13:14;95609.13;;;11.78;62.46
16094;BME280;8151;47.824;12.092;2023-04-25T09:15:50;95601.44;;;11.83;62.13
16094;BME280;8151;47.824;12.092;2023-04-25T09:18:23;95602.53;;;11.95;61.62
16094;BME280;8151;47.824;12.092;2023-04-25T09:20:58;95593.00;;;12.08;61.24
16094;BME280;8151;47.824;12.092;2023-04-25T09:23:41;95598.91;;;12.03;61.23
16094;BME280;8151;47.824;12.092;2023-04-25T09:26:10;95598.91;;;12.03;60.87
16094;BME280;8151;47.824;12.092;2023-04-25T09:28:38;95601.31;;;11.98;60.72
16094;BME280;8151;47.824;12.092;2023-04-25T09:31:09;95603.31;;;11.89;61.03
16094;BME280;8151;47.824;12.092;2023-04-25T09:33:40;95623.00;;;11.80;60.91
16094;BME280;8151;47.824;12.092;2023-04-25T09:36:09;95617.28;;;11.48;62.00
16094;BME280;8151;47.824;12.092;2023-04-25T09:38:44;95623.44;;;11.27;62.97
16094;BME280;8151;47.824;12.092;2023-04-25T09:41:13;95638.81;;;11.17;63.62
16094;BME280;8151;47.824;12.092;2023-04-25T09:43:45;95655.66;;;11.09;64.24
16094;BME280;8151;47.824;12.092;2023-04-25T09:46:15;95679.56;;;10.79;64.31
16094;BME280;8151;47.824;12.092;2023-04-25T09:48:49;95656.19;;;10.17;66.02
16094;BME280;8151;47.824;12.092;2023-04-25T09:51:25;95658.47;;;10.05;66.67
16094;BME280;8151;47.824;12.092;2023-04-25T09:53:54;95645.53;;;10.10;66.21
16094;BME280;8151;47.824;12.092;2023-04-25T09:56:23;95658.25;;;10.21;66.33
16094;BME280;8151;47.824;12.092;2023-04-25T09:58:53;95649.56;;;10.36;66.41
16094;BME280;8151;47.824;12.092;2023-04-25T10:01:25;95657.25;;;10.52;66.09
16094;BME280;8151;47.824;12.092;2023-04-25T10:03:56;95644.53;;;10.77;65.83
16094;BME280;8151;47.824;12.092;2023-04-25T10:06:27;95643.84;;;10.90;65.70
16094;BME280;8151;47.824;12.092;2023-04-25T10:08:57;95638.53;;;11.05;66.09
16094;BME280;8151;47.824;12.092;2023-04-25T10:11:26;95639.25;;;11.20;65.90
16094;BME280;8151;47.824;12.092;2023-04-25T10:13:56;95630.47;;;11.41;65.55
16094;BME280;8151;47.824;12.092;2023-04-25T10:16:26;95626.53;;;11.59;65.34
16094;BME280;8151;47.824;12.092;2023-04-25T10:18:55;95622.13;;;11.73;65.17
16094;BME280;8151;47.824;12.092;2023-04-25T10:21:24;95624.66;;;11.81;65.27
16094;BME280;8151;47.824;12.092;2023-04-25T10:23:56;95620.84;;;11.90;65.32
16094;BME280;8151;47.824;12.092;2023-04-25T10:26:25;95623.75;;;11.95;64.94
16094;BME280;8151;47.824;12.092;2023-04-25T10:28:58;95616.41;;;11.97;64.79
16094;BME280;8151;47.824;12.092;2023-04-25T10:31:29;95617.31;;;12.11;64.79
16094;BME280;8151;47.824;12.092;2023-04-25T10:33:59;95615.56;;;12.32;64.41
16094;BME280;8151;47.824;12.092;2023-04-25T10:36:31;95607.88;;;12.44;64.29
16094;BME280;8151;47.824;12.092;2023-04-25T10:39:03;95604.47;;;12.56;64.15
16094;BME280;8151;47.824;12.092;2023-04-25T10:41:53;95601.03;;;12.83;63.58
16094;BME280;8151;47.824;12.092;2023-04-25T10:44:22;95594.13;;;13.02;63.41
16094;BME280;8151;47.824;12.092;2023-04-25T10:46:52;95597.41;;;13.10;63.29
16094;BME280;8151;47.824;12.092;2023-04-25T10:49:32;95600.28;;;13.09;62.85
16094;BME280;8151;47.824;12.092;2023-04-25T10:52:17;95603.50;;;12.91;63.32
16094;BME280;8151;47.824;12.092;2023-04-25T10:54:47;95605.53;;;12.89;63.89
16094;BME280;8151;47.824;12.092;2023-04-25T10:57:27;95603.72;;;12.89;63.76
16094;BME280;8151;47.824;12.092;2023-04-25T11:00:01;95600.03;;;12.84;63.66
16094;BME280;8151;47.824;12.092;2023-04-25T11:02:40;95597.16;;;12.78;64.00
16094;BME280;8151;47.824;12.092;2023-04-25T11:05:10;95588.00;;;12.88;64.09
16094;BME280;8151;47.824;12.092;2023-04-25T11:07:44;95604.13;;;13.06;63.67
16094;BME280;8151;47.824;12.092;2023-04-25T11:10:26;95596.41;;;13.11;63.64
16094;BME280;8151;47.824;12.092;2023-04-25T11:12:55;95598.44;;;13.16;63.73
16094;BME280;8151;47.824;12.092;2023-04-25T11:15:24;95598.44;;;13.09;63.25
16094;BME280;8151;47.824;12.092;2023-04-25T11:17:54;95603.53;;;12.97;63.54
16094;BME280;8151;47.824;12.092;2023-04-25T11:20:25;95599.03;;;12.91;63.83
16094;BME280;8151;47.824;12.092;2023-04-25T11:22:57;95596.78;;;12.82;64.01
16094;BME280;8151;47.824;12.092;2023-04-25T11:25:26;95603.09;;;12.80;64.51
16094;BME280;8151;47.824;12.092;2023-04-25T11:27:58;95602.88;;;12.82;65.04
16094;BME280;8151;47.824;12.092;2023-04-25T11:30:36;95596.78;;;12.95;65.23
16094;BME280;8151;47.824;12.092;2023-04-25T11:33:06;95593.94;;;13.03;64.70
16094;BME280;8151;47.824;12.092;2023-04-25T11:35:35;95583.53;;;13.22;64.56
16094;BME280;8151;47.824;12.092;2023-04-25T11:38:04;95582.94;;;13.39;64.68
16094;BME280;8151;47.824;12.092;2023-04-25T11:40:32;95585.59;;;13.39;64.60
16094;BME280;8151;47.824;12.092;2023-04-25T11:43:01;95595.00;;;13.35;64.64
16094;BME280;8151;47.824;12.092;2023-04-25T11:45:29;95593.94;;;13.23;64.67
16094;BME280;8151;47.824;12.092;2023-04-25T11:47:58;95600.28;;;13.09;64.63
16094;BME280;8151;47.824;12.092;2023-04-25T11:50:29;95623.31;;;12.95;64.36
16094;BME280;8151;47.824;12.092;2023-04-25T11:52:57;95642.28;;;12.72;64.64
16094;BME280;8151;47.824;12.092;2023-04-25T11:55:26;95674.94;;;11.96;65.11
16094;BME280;8151;47.824;12.092;2023-04-25T11:57:59;95710.25;;;10.44;68.85
16094;BME280;8151;47.824;12.092;2023-04-25T12:00:28;95718.78;;;9.25;71.48
16094;BME280;8151;47.824;12.092;2023-04-25T12:02:57;95732.19;;;8.53;73.15
16094;BME280;8151;47.824;12.092;2023-04-25T12:05:30;95732.56;;;8.34;73.52
16094;BME280;8151;47.824;12.092;2023-04-25T12:08:10;95738.66;;;8.34;73.36
16094;BME280;8151;47.824;12.092;2023-04-25T12:10:41;95738.66;;;8.42;72.55
16094;BME280;8151;47.824;12.092;2023-04-25T12:13:23;95751.03;;;8.42;72.50
16094;BME280;8151;47.824;12.092;2023-04-25T12:15:54;95743.41;;;8.39;71.89
16094;BME280;8151;47.824;12.092;2023-04-25T12:18:24;95753.13;;;8.38;72.16
16094;BME280;8151;47.824;12.092;2023-04-25T12:20:55;95743.75;;;8.44;72.01
16094;BME280;8151;47.824;12.092;2023-04-25T12:23:27;95743.56;;;8.54;71.86
16094;BME280;8151;47.824;12.092;2023-04-25T12:25:56;95750.09;;;8.66;71.04
16094;BME280;8151;47.824;12.092;2023-04-25T12:28:25;95747.56;;;8.81;71.17
16094;BME280;8151;47.824;12.092;2023-04-25T12:30:58;95758.88;;;8.90;71.31
16094;BME280;8151;47.824;12.092;2023-04-25T12:33:29;95748.16;;;8.91;71.30
16094;BME280;8151;47.824;12.092;2023-04-25T12:36:00;95757.16;;;9.05;70.90
16094;BME280;8151;47.824;12.092;2023-04-25T12:38:36;95750.31;;;9.19;71.02
16094;BME280;8151;47.824;12.092;2023-04-25T12:41:05;95750.56;;;9.32;71.01
16094;BME280;8151;47.824;12.092;2023-04-25T12:43:34;95751.16;;;9.42;70.77
16094;BME280;8151;47.824;12.092;2023-04-25T12:46:02;95747.69;;;9.42;71.09
16094;BME280;8151;47.824;12.092;2023-04-25T12:48:31;95743.41;;;9.41;70.91
16094;BME280;8151;47.824;12.092;2023-04-25T12:51:01;95745.03;;;9.42;70.56
16094;BME280;8151;47.824;12.092;2023-04-25T12:53:29;95749.50;;;9.41;71.24
16094;BME280;8151;47.824;12.092;2023-04-25T12:56:00;95743.75;;;9.38;70.77
16094;BME280;8151;47.824;12.092;2023-04-25T12:58:28;95730.69;;;9.44;71.24
16094;BME280;8151;47.824;12.092;2023-04-25T13:00:57;95730.72;;;9.59;71.39
16094;BME280;8151;47.824;12.092;2023-04-25T13:03:25;95727.94;;;9.76;70.97
16094;BME280;8151;47.824;12.092;2023-04-25T13:05:54;95726.41;;;9.96;70.46
16094;BME280;8151;47.824;12.092;2023-04-25T13:08:24;95726.47;;;10.26;70.20
16094;BME280;8151;47.824;12.092;2023-04-25T13:10:52;95730.84;;;10.49;70.10
16094;BME280;8151;47.824;12.092;2023-04-25T13:13:26;95730.41;;;10.60;69.93
16094;BME280;8151;47.824;12.092;2023-04-25T13:15:55;95734.59;;;10.69;69.48
16094;BME280;8151;47.824;12.092;2023-04-25T13:18:24;95736.38;;;10.83;69.77
16094;BME280;8151;47.824;12.092;2023-04-25T13:20:53;95751.78;;;11.10;69.83